Time;durP1;ratioP1;P1;durP2;ratioP2;P2;SDS_P1;SDS_P2;PMS_P1;PMS_P2;Temp;Humidity;BMP_temperature;BMP_pressure;BME280_temperature;BME280_humidity;BME280_pressure;Samples;Min_cycle;Max_cycle;Signal;HPM_P1;HPM_P2
2022/01/28 00:01:22;;;;;;;49.58;26.92;;;;;;;9.14;92.89;102845.72;5036702;28;20056;-65
2022/01/28 00:03:49;;;;;;;48.55;26.52;;;;;;;9.00;92.25;102845.25;5017927;28;20424;-65
2022/01/28 00:06:17;;;;;;;46.03;26.92;;;;;;;9.20;92.64;102843.91;5036294;28;20052;-67
2022/01/28 00:08:45;;;;;;;44.58;26.08;;;;;;;9.09;92.54;102840.16;5031830;28;20076;-65
2022/01/28 00:11:12;;;;;;;45.47;26.88;;;;;;;9.19;92.96;102842.25;5036316;28;20049;-65
2022/01/28 00:13:41;;;;;;;44.13;27.00;;;;;;;9.30;92.41;102844.03;5051646;28;20060;-66
2022/01/28 00:16:51;;;;;;;48.70;26.33;;;;;;;9.48;91.22;102846.50;5052041;28;20049;-65
2022/01/28 00:38:30;;;;;;;52.05;28.27;;;;;;;9.26;90.79;102867.66;5014926;28;20054;-65
2022/01/28 00:40:58;;;;;;;49.88;27.65;;;;;;;9.33;91.06;102868.31;4997368;28;20057;-65
2022/01/28 00:43:25;;;;;;;52.38;27.25;;;;;;;9.34;90.68;102873.56;5016198;28;20057;-66
2022/01/28 00:45:52;;;;;;;51.85;28.05;;;;;;;9.13;92.45;102872.38;5016217;28;20133;-67
2022/01/28 00:48:20;;;;;;;52.33;27.92;;;;;;;9.05;93.50;102880.22;5035730;28;20041;-66
2022/01/28 00:50:47;;;;;;;51.78;28.90;;;;;;;9.24;93.37;102878.88;5035411;28;20042;-65
2022/01/28 00:53:14;;;;;;;49.70;27.35;;;;;;;9.00;93.80;102872.75;5018292;28;20204;-65
2022/01/28 00:55:42;;;;;;;49.75;27.40;;;;;;;8.94;95.25;102883.91;5022730;28;20056;-65
2022/01/28 00:58:09;;;;;;;47.25;26.90;;;;;;;9.04;95.26;102890.41;5033722;28;20049;-64
2022/01/28 01:00:36;;;;;;;46.17;26.70;;;;;;;9.24;94.40;102887.13;5033350;28;20048;-65
2022/01/28 01:03:03;;;;;;;51.70;27.98;;;;;;;8.84;95.67;102890.06;5035047;28;20076;-65
2022/01/28 01:05:33;;;;;;;45.72;26.60;;;;;;;8.97;96.62;102889.75;5035151;28;20050;-65
2022/01/28 01:08:02;;;;;;;49.03;27.98;;;;;;;9.08;95.53;102891.56;5034844;28;20496;-65
2022/01/28 01:10:30;;;;;;;47.42;27.27;;;;;;;8.88;95.72;102893.97;5035354;28;20071;-65
2022/01/28 01:12:57;;;;;;;51.20;28.15;;;;;;;8.65;96.92;102896.88;5035384;28;20056;-65
2022/01/28 01:15:31;;;;;;;47.00;27.70;;;;;;;8.74;97.54;102895.38;5035666;28;20053;-65
2022/01/28 01:23:21;;;;;;;48.58;26.45;;;;;;;8.91;96.49;102898.97;5035413;28;20053;-65
2022/01/28 01:25:57;;;;;;;45.13;27.40;;;;;;;9.00;95.87;102911.22;5035177;28;20079;-64
2022/01/28 01:28:30;;;;;;;51.08;28.52;;;;;;;8.72;96.97;102907.69;5034816;28;20419;-65
2022/01/28 01:30:59;;;;;;;50.33;28.15;;;;;;;8.80;96.86;102908.13;5034937;28;20049;-64
2022/01/28 01:33:29;;;;;;;51.63;28.60;;;;;;;8.68;97.34;102906.53;5016660;28;20057;-64
2022/01/28 01:35:59;;;;;;;47.78;27.75;;;;;;;8.79;97.07;102911.13;5017913;28;20087;-65
2022/01/28 01:38:28;;;;;;;;;;;;;;;8.81;96.06;102915.28;5016934;28;20049;-65
2022/01/28 01:40:58;;;;;;;48.63;26.27;;;;;;;8.92;95.53;102908.06;5001173;28;20304;-65
2022/01/28 01:43:40;;;;;;;46.90;27.77;;;;;;;8.28;97.48;102920.31;5035141;28;20060;-66
2022/01/28 01:54:13;;;;;;;47.92;26.60;;;;;;;8.56;99.57;102927.75;5034803;28;20053;-65
2022/01/28 01:56:40;;;;;;;50.53;27.83;;;;;;;8.35;98.16;102929.25;5034549;28;20045;-65
2022/01/28 01:59:09;;;;;;;46.70;27.52;;;;;;;8.36;99.08;102947.41;5034854;28;20057;-64
2022/01/28 02:01:38;;;;;;;52.25;28.50;;;;;;;8.26;99.31;102938.13;5034667;28;20041;-65
2022/01/28 02:04:06;;;;;;;50.08;29.27;;;;;;;8.21;99.57;102941.56;5034383;28;20504;-64
2022/01/28 02:06:33;;;;;;;52.17;28.40;;;;;;;8.28;99.59;102944.22;5034434;28;20072;-66
2022/01/28 02:09:01;;;;;;;42.65;27.00;;;;;;;8.62;99.07;102948.72;5015730;28;20054;-65
2022/01/28 02:11:28;;;;;;;48.00;27.60;;;;;;;8.48;98.19;102950.94;5034777;28;20049;-64
2022/01/28 02:13:55;;;;;;;50.30;27.33;;;;;;;8.61;97.73;102953.38;5052172;28;20071;-65
2022/01/28 02:16:22;;;;;;;46.63;27.42;;;;;;;8.79;96.37;102953.19;5052819;28;20060;-65
2022/01/28 02:18:50;;;;;;;48.22;27.48;;;;;;;8.57;94.60;102954.13;5017712;28;20076;-64
2022/01/28 02:21:18;;;;;;;49.40;26.67;;;;;;;8.34;95.77;102960.53;5037874;28;20061;-65
2022/01/28 02:23:50;;;;;;;44.75;26.40;;;;;;;8.21;96.37;102963.53;5038713;28;20057;-65
2022/01/28 02:26:17;;;;;;;47.72;27.75;;;;;;;8.16;96.13;102966.16;5038461;28;20437;-64
2022/01/28 02:28:49;;;;;;;49.55;27.75;;;;;;;8.16;96.91;102952.44;5038402;28;20049;-65
2022/01/28 02:31:21;;;;;;;50.08;28.35;;;;;;;8.15;96.05;102960.91;5026823;28;20530;-64
2022/01/28 02:33:50;;;;;;;51.03;28.02;;;;;;;7.88;96.62;102958.72;5018192;28;20053;-65
2022/01/28 02:36:17;;;;;;;53.53;27.65;;;;;;;7.90;97.56;102961.22;5018730;28;20050;-65
2022/01/28 02:38:44;;;;;;;47.97;26.63;;;;;;;8.08;97.56;102966.56;5000353;28;20089;-65
2022/01/28 02:41:12;;;;;;;45.50;26.98;;;;;;;7.99;96.93;102962.50;5018387;28;20507;-64
2022/01/28 02:43:46;;;;;;;43.75;27.02;;;;;;;8.05;97.26;102963.47;5018523;28;20061;-64
2022/01/28 02:46:16;;;;;;;51.70;27.95;;;;;;;8.19;96.69;102971.19;5001974;28;20062;-65
2022/01/28 02:48:54;;;;;;;51.65;27.38;;;;;;;8.26;95.96;102979.31;5014915;28;20046;-65
2022/01/28 02:51:23;;;;;;;52.42;27.25;;;;;;;8.38;94.94;102978.22;5017819;28;20060;-65
2022/01/28 02:56:21;;;;;;;46.63;27.48;;;;;;;8.47;94.79;102973.16;5018480;28;20050;-65
2022/01/28 02:58:49;;;;;;;46.92;26.67;;;;;;;8.62;94.13;102966.03;5005095;28;20045;-67
2022/01/28 03:01:18;;;;;;;41.63;25.85;;;;;;;8.29;93.64;102965.09;5037256;28;20049;-65
2022/01/28 03:03:47;;;;;;;45.70;26.17;;;;;;;8.26;94.08;102971.91;5037683;28;20049;-66
2022/01/28 03:06:16;;;;;;;48.40;27.13;;;;;;;8.46;93.58;102966.81;5037730;28;20053;-64
2022/01/28 03:08:52;;;;;;;46.10;25.48;;;;;;;8.17;92.99;102965.09;5020052;28;20049;-64
2022/01/28 03:16:40;;;;;;;50.47;27.85;;;;;;;8.19;93.88;102948.38;5055142;28;19927;-65
2022/01/28 03:19:17;;;;;;;49.67;26.88;;;;;;;8.66;93.98;102945.25;5037165;28;20056;-64
2022/01/28 03:21:53;;;;;;;45.00;26.60;;;;;;;8.55;92.75;102948.88;5037302;28;20053;-65
2022/01/28 03:24:25;;;;;;;43.10;26.58;;;;;;;8.52;92.65;102943.03;5037412;28;20046;-65
2022/01/28 03:26:57;;;;;;;51.55;27.35;;;;;;;8.57;92.68;102949.47;5022022;28;20045;-64
2022/01/28 03:29:25;;;;;;;49.13;26.38;;;;;;;8.58;91.66;102945.63;5037036;28;20053;-66
2022/01/28 03:31:52;;;;;;;45.95;26.52;;;;;;;8.87;91.32;102941.75;5037228;28;20492;-64
2022/01/28 03:34:19;;;;;;;44.90;24.40;;;;;;;8.64;90.72;102961.16;5036998;28;20045;-65
2022/01/28 03:36:47;;;;;;;46.15;25.40;;;;;;;8.63;90.96;102964.94;5019281;28;20057;-65
2022/01/28 03:39:14;;;;;;;46.38;25.38;;;;;;;8.60;90.85;102961.88;5019383;28;20124;-65
2022/01/28 03:41:42;;;;;;;40.72;25.13;;;;;;;8.50;90.99;102953.44;5035804;28;20049;-66
2022/01/28 03:44:09;;;;;;;43.03;26.15;;;;;;;8.46;91.79;102941.25;5037566;28;20045;-64
2022/01/28 03:46:37;;;;;;;47.17;26.92;;;;;;;8.65;91.21;102953.72;5036793;28;20056;-64
2022/01/28 03:49:04;;;;;;;41.67;24.17;;;;;;;8.61;90.82;102958.06;5036538;28;20053;-64
2022/01/28 03:51:31;;;;;;;44.67;25.48;;;;;;;8.47;90.91;102956.69;5036751;28;20515;-63
2022/01/28 03:53:59;;;;;;;44.53;25.70;;;;;;;8.77;90.79;102962.75;5036898;28;20049;-65
2022/01/28 03:56:27;;;;;;;39.25;23.23;;;;;;;8.86;89.57;102969.50;5040328;28;20049;-66
2022/01/28 03:58:54;;;;;;;43.25;23.52;;;;;;;8.43;90.06;102980.22;5018989;28;20065;-65
2022/01/28 04:01:28;;;;;;;42.42;24.92;;;;;;;8.38;90.92;102980.13;5018935;28;20056;-65
2022/01/28 04:11:40;;;;;;;42.80;23.65;;;;;;;8.19;91.41;102992.31;5034033;28;20064;-65
2022/01/28 04:14:12;;;;;;;47.03;26.33;;;;;;;8.12;92.28;102995.19;5045965;28;20057;-66
2022/01/28 04:19:25;;;;;;;47.15;25.17;;;;;;;8.10;91.93;102994.59;5036086;28;20515;-65
2022/01/28 04:21:52;;;;;;;49.20;24.90;;;;;;;8.18;92.22;102982.38;5015197;28;20057;-65
2022/01/28 04:24:20;;;;;;;46.35;26.00;;;;;;;8.35;92.10;102988.84;5036469;28;20064;-64
2022/01/28 04:26:47;;;;;;;46.22;24.77;;;;;;;8.41;91.32;102988.69;5017810;28;20053;-66
2022/01/28 04:29:14;;;;;;;47.15;25.38;;;;;;;8.45;90.73;102987.13;5018771;28;20531;-65
2022/01/28 04:31:45;;;;;;;43.50;25.10;;;;;;;8.54;90.07;102991.13;5017788;28;20065;-65
2022/01/28 04:34:13;;;;;;;44.70;25.58;;;;;;;8.79;89.39;102994.38;5017312;28;20500;-65
2022/01/28 04:42:15;;;;;;;46.10;26.00;;;;;;;8.37;90.05;103006.72;5035212;28;20050;-65
2022/01/28 04:50:08;;;;;;;47.47;24.95;;;;;;;8.41;89.94;102996.09;5035672;28;20060;-65
2022/01/28 05:06:04;;;;;;;;;;;;;;;8.69;87.92;103007.94;5034354;28;20054;-66
2022/01/28 05:08:55;;;;;;;45.35;25.33;;;;;;;8.73;88.10;103013.78;5030768;28;19928;-66
2022/01/28 05:27:27;;;;;;;47.05;23.27;;;;;;;8.49;88.13;103045.16;5016657;28;20068;-66
2022/01/28 05:29:54;;;;;;;41.95;23.58;;;;;;;8.42;88.87;103037.03;5034726;28;20511;-66
2022/01/28 05:32:22;;;;;;;44.33;23.85;;;;;;;8.43;89.20;103041.47;5034728;28;20032;-65
2022/01/28 05:34:49;;;;;;;46.75;24.63;;;;;;;8.29;89.13;103045.56;5034544;28;20056;-65
2022/01/28 05:37:16;;;;;;;44.83;24.50;;;;;;;8.36;89.38;103053.66;5037111;28;20437;-66
2022/01/28 05:39:44;;;;;;;41.58;22.98;;;;;;;8.45;89.50;103050.31;5034390;28;20052;-67
2022/01/28 05:42:11;;;;;;;46.00;22.77;;;;;;;8.72;88.06;103045.91;5017031;28;20042;-67
2022/01/28 05:44:38;;;;;;;45.33;24.25;;;;;;;8.49;87.91;103045.97;5034891;28;20053;-65
2022/01/28 05:47:05;;;;;;;39.97;23.50;;;;;;;8.60;87.76;103052.50;5035471;28;20064;-67
2022/01/28 05:49:33;;;;;;;46.67;23.65;;;;;;;8.88;87.17;103052.53;5034976;28;20049;-68
2022/01/28 05:52:01;;;;;;;46.55;24.02;;;;;;;8.70;86.57;103061.78;5033209;28;20053;-66
2022/01/28 05:54:28;;;;;;;44.75;24.42;;;;;;;8.79;85.85;103070.50;5017036;28;20056;-66
2022/01/28 05:56:55;;;;;;;42.97;22.98;;;;;;;8.48;86.78;103071.78;5034845;28;20057;-66
2022/01/28 05:59:22;;;;;;;42.00;24.10;;;;;;;8.66;86.93;103073.53;5034732;28;20055;-65
2022/01/28 06:01:50;;;;;;;51.28;25.48;;;;;;;8.68;86.08;103080.44;5033866;28;20045;-66
2022/01/28 06:04:19;;;;;;;51.92;24.45;;;;;;;8.70;85.84;103085.72;5033947;28;20515;-66
2022/01/28 06:06:47;;;;;;;44.25;25.40;;;;;;;8.73;85.64;103101.72;5034463;28;20062;-67
2022/01/28 06:09:14;;;;;;;44.90;23.98;;;;;;;8.77;85.43;103100.16;5000156;28;20049;-67
2022/01/28 06:11:45;;;;;;;40.30;22.25;;;;;;;8.74;85.33;103104.19;5032233;28;20619;-66
2022/01/28 06:14:13;;;;;;;42.58;23.10;;;;;;;8.74;85.27;103101.47;5035198;28;20053;-66
2022/01/28 06:16:40;;;;;;;50.65;25.35;;;;;;;8.77;85.15;103089.97;5016539;28;20061;-67
2022/01/28 06:19:07;;;;;;;41.50;23.98;;;;;;;8.77;84.68;103089.16;5029597;28;20068;-66
2022/01/28 06:21:34;;;;;;;42.90;24.13;;;;;;;8.89;84.64;103090.75;5029994;28;20064;-66
2022/01/28 06:24:02;;;;;;;35.33;23.20;;;;;;;9.05;84.21;103092.75;5033925;28;20113;-66
2022/01/28 06:26:29;;;;;;;42.50;23.13;;;;;;;8.84;84.06;103096.16;5016663;28;20056;-67
2022/01/28 06:28:56;;;;;;;40.00;22.83;;;;;;;8.75;84.11;103088.56;5034713;28;20053;-67
2022/01/28 06:31:23;;;;;;;39.13;22.75;;;;;;;8.54;84.23;103091.97;5034241;28;20049;-66
2022/01/28 06:33:51;;;;;;;46.53;23.55;;;;;;;8.56;84.63;103090.63;5034506;28;20432;-67
2022/01/28 06:36:20;;;;;;;47.38;24.40;;;;;;;8.46;84.10;103095.06;5033837;28;20053;-66
2022/01/28 06:38:48;;;;;;;43.50;24.15;;;;;;;8.63;84.10;103085.81;5034434;28;20053;-66
2022/01/28 06:41:16;;;;;;;43.38;24.35;;;;;;;8.66;84.18;103090.03;5034166;28;20045;-67
2022/01/28 06:43:43;;;;;;;49.42;23.77;;;;;;;8.61;84.29;103087.16;5034235;28;20053;-65
2022/01/28 06:46:10;;;;;;;47.10;24.35;;;;;;;8.84;83.78;103082.41;5030361;28;20045;-66
2022/01/28 06:48:38;;;;;;;43.83;24.10;;;;;;;8.86;83.03;103099.50;5003524;28;20058;-67
2022/01/28 06:51:05;;;;;;;46.03;24.38;;;;;;;8.71;83.45;103092.88;5031852;28;20064;-67
2022/01/28 06:53:32;;;;;;;42.15;24.85;;;;;;;8.71;83.58;103101.94;5033846;28;20046;-66
2022/01/28 06:56:00;;;;;;;42.67;24.35;;;;;;;8.54;83.73;103111.19;5033622;28;20041;-68
2022/01/28 06:58:27;;;;;;;46.28;26.02;;;;;;;8.49;83.92;103105.59;5033268;28;20057;-66
2022/01/28 07:00:54;;;;;;;41.95;25.25;;;;;;;8.50;83.85;103102.59;5032683;28;20048;-67
2022/01/28 07:03:21;;;;;;;41.25;24.23;;;;;;;8.49;83.41;103109.16;5033890;28;20045;-67
2022/01/28 07:05:49;;;;;;;49.50;25.02;;;;;;;8.61;83.22;103109.16;5037357;28;20045;-65
2022/01/28 07:08:16;;;;;;;43.42;24.58;;;;;;;8.79;82.62;103109.81;5037510;28;20072;-67
2022/01/28 07:10:44;;;;;;;44.17;24.90;;;;;;;8.81;82.16;103106.81;5034460;28;20061;-67
2022/01/28 07:13:14;;;;;;;44.72;25.38;;;;;;;8.75;81.30;103111.34;5057526;28;20052;-67
2022/01/28 07:15:43;;;;;;;47.75;27.23;;;;;;;8.73;81.33;103109.94;5043764;28;20062;-66
2022/01/28 07:18:10;;;;;;;42.50;28.33;;;;;;;8.76;80.58;103113.03;5037330;28;20053;-68
2022/01/28 07:20:38;;;;;;;43.95;27.17;;;;;;;8.80;79.74;103119.69;5037330;28;20412;-67
2022/01/28 07:23:05;;;;;;;47.58;27.45;;;;;;;8.59;79.87;103127.78;5037209;28;20045;-66
2022/01/28 07:25:32;;;;;;;46.03;27.45;;;;;;;8.49;80.66;103135.81;5038356;28;20060;-66
2022/01/28 07:28:00;;;;;;;47.30;26.65;;;;;;;8.68;80.39;103131.81;5046216;28;20052;-66
2022/01/28 07:30:27;;;;;;;47.90;26.90;;;;;;;8.77;79.77;103130.38;5037087;28;20060;-68
2022/01/28 07:32:55;;;;;;;45.83;26.70;;;;;;;8.78;79.60;103134.78;5037973;28;20049;-67
2022/01/28 07:35:22;;;;;;;51.20;28.23;;;;;;;9.09;78.98;103134.31;5038103;28;20053;-69
2022/01/28 07:37:49;;;;;;;65.90;38.33;;;;;;;9.11;78.29;103137.66;5035827;28;20057;-67
2022/01/28 07:40:16;;;;;;;49.40;29.90;;;;;;;9.05;78.19;103144.13;5037100;28;20049;-66
2022/01/28 07:42:44;;;;;;;50.22;29.85;;;;;;;9.02;78.42;103147.38;5035694;28;20054;-66
2022/01/28 07:45:16;;;;;;;49.40;27.27;;;;;;;9.15;78.40;103151.75;5036966;28;20045;-66
2022/01/28 07:47:43;;;;;;;46.67;26.13;;;;;;;9.16;78.56;103156.16;5018737;28;20103;-66
2022/01/28 07:50:13;;;;;;;44.67;26.65;;;;;;;9.02;78.92;103158.38;5018971;28;20056;-66
2022/01/28 07:52:41;;;;;;;50.22;26.10;;;;;;;9.26;78.72;103153.63;5036102;28;20464;-68
2022/01/28 07:55:13;;;;;;;43.33;25.73;;;;;;;9.04;78.76;103161.72;5036513;28;20504;-66
2022/01/28 07:57:41;;;;;;;49.45;27.55;;;;;;;8.81;79.24;103170.84;5036621;28;20042;-67
2022/01/28 08:00:10;;;;;;;45.05;26.58;;;;;;;8.90;79.23;103174.06;5018221;28;20065;-67
2022/01/28 08:02:42;;;;;;;49.13;25.63;;;;;;;8.92;78.56;103174.66;5029040;28;20044;-66
2022/01/28 08:05:12;;;;;;;49.65;26.00;;;;;;;8.47;80.69;103188.19;5033041;28;20057;-66
2022/01/28 08:07:39;;;;;;;47.65;25.55;;;;;;;8.53;81.24;103187.25;5034574;28;20053;-66
2022/01/28 08:10:08;;;;;;;46.38;26.00;;;;;;;8.54;81.01;103191.66;5036374;28;20431;-66
2022/01/28 08:12:45;;;;;;;45.55;26.17;;;;;;;8.59;80.96;103193.69;5042448;28;20053;-67
2022/01/28 08:15:14;;;;;;;48.20;26.52;;;;;;;9.16;84.49;103190.00;5032754;28;20054;-65
2022/01/28 08:17:42;;;;;;;41.85;24.98;;;;;;;8.92;79.64;103192.00;5028836;28;20041;-66
2022/01/28 08:20:10;;;;;;;54.63;27.98;;;;;;;8.64;79.06;103188.31;5035515;28;20041;-67
2022/01/28 08:22:53;;;;;;;45.53;25.63;;;;;;;8.37;80.17;103189.91;5035493;28;20068;-68
2022/01/28 08:25:22;;;;;;;45.42;27.88;;;;;;;8.50;80.93;103193.22;5033978;28;20053;-67
2022/01/28 08:27:50;;;;;;;49.70;28.90;;;;;;;8.62;80.34;103190.47;5034195;28;20049;-67
2022/01/28 08:30:21;;;;;;;44.83;25.88;;;;;;;8.57;79.69;103190.34;5030877;28;20063;-66
2022/01/28 08:32:49;;;;;;;49.05;26.95;;;;;;;8.53;80.06;103201.00;5029001;28;20743;-67
2022/01/28 08:35:23;;;;;;;44.63;26.75;;;;;;;8.50;80.26;103201.47;5030015;28;20064;-65
2022/01/28 08:37:50;;;;;;;51.35;26.38;;;;;;;8.61;79.96;103208.84;5027739;28;20054;-65
2022/01/28 08:40:18;;;;;;;51.53;27.10;;;;;;;8.62;79.69;103207.78;5034822;28;20045;-65
2022/01/28 08:42:45;;;;;;;47.72;25.88;;;;;;;8.74;79.14;103219.59;5036574;28;20057;-66
2022/01/28 08:45:13;;;;;;;45.65;24.77;;;;;;;8.55;79.56;103225.47;5035303;28;20045;-66
2022/01/28 08:47:40;;;;;;;42.00;25.83;;;;;;;8.45;79.80;103227.97;5028025;28;20068;-65
2022/01/28 08:50:09;;;;;;;45.50;25.35;;;;;;;8.59;79.54;103237.66;5029728;28;20065;-66
2022/01/28 08:52:36;;;;;;;42.25;25.33;;;;;;;8.52;79.33;103240.53;5031001;28;20515;-67
2022/01/28 08:55:05;;;;;;;46.85;26.60;;;;;;;8.31;80.04;103240.25;5033573;28;20049;-66
2022/01/28 08:57:33;;;;;;;45.63;24.73;;;;;;;8.62;79.68;103248.16;5034042;28;20060;-66
2022/01/28 09:00:06;;;;;;;44.17;24.35;;;;;;;8.75;78.91;103257.00;5031627;28;20041;-67
2022/01/28 09:02:34;;;;;;;42.63;24.13;;;;;;;8.81;78.50;103258.78;5032407;28;20049;-66
2022/01/28 09:05:01;;;;;;;51.65;26.42;;;;;;;9.04;77.65;103258.78;5029935;28;20057;-66
2022/01/28 09:07:29;;;;;;;40.53;24.17;;;;;;;8.68;77.41;103263.72;5029756;28;20124;-67
2022/01/28 09:10:03;;;;;;;41.65;23.33;;;;;;;8.41;78.59;103270.72;5032596;28;20049;-67
2022/01/28 09:12:46;;;;;;;46.10;24.55;;;;;;;8.35;78.85;103272.50;5035615;28;20057;-66
2022/01/28 09:15:14;;;;;;;43.50;24.35;;;;;;;8.41;78.86;103268.81;5043280;28;20040;-66
2022/01/28 09:17:54;;;;;;;42.25;23.08;;;;;;;8.45;78.74;103263.69;5031138;28;20053;-66
2022/01/28 09:20:31;;;;;;;40.78;22.67;;;;;;;8.56;78.55;103265.63;5033758;28;20404;-65
2022/01/28 09:23:00;;;;;;;43.50;24.23;;;;;;;8.34;79.26;103265.34;5032865;28;20522;-66
2022/01/28 09:25:27;;;;;;;46.28;23.73;;;;;;;8.45;79.49;103256.28;5031154;28;20049;-66
2022/01/28 09:27:55;;;;;;;51.67;29.55;;;;;;;8.75;78.49;103259.75;5032836;28;20048;-66
2022/01/28 09:30:22;;;;;;;42.03;22.80;;;;;;;8.69;77.86;103260.72;5032446;28;20711;-66
2022/01/28 09:32:49;;;;;;;38.55;21.70;;;;;;;8.57;78.13;103270.03;5029523;28;20050;-65
2022/01/28 09:35:17;;;;;;;36.15;21.48;;;;;;;8.79;77.74;103263.69;5028115;28;20400;-66
2022/01/28 09:37:44;;;;;;;40.75;21.88;;;;;;;8.65;78.22;103281.50;5030446;28;20056;-67
2022/01/28 09:40:12;;;;;;;41.42;22.25;;;;;;;8.23;78.74;103276.28;5025116;28;20427;-65
2022/01/28 09:42:42;;;;;;;40.85;21.27;;;;;;;7.96;80.12;103265.72;5024463;28;20057;-67
2022/01/28 09:45:10;;;;;;;40.35;20.63;;;;;;;8.06;80.79;103276.09;5032619;28;20041;-68
2022/01/28 09:47:38;;;;;;;39.28;20.58;;;;;;;8.09;79.90;103270.13;5039889;28;20459;-68
2022/01/28 09:50:07;;;;;;;42.50;22.52;;;;;;;8.37;79.81;103278.59;5038909;28;20053;-67
2022/01/28 09:52:34;;;;;;;41.80;22.27;;;;;;;8.80;77.95;103272.78;5031369;28;20396;-67
2022/01/28 09:55:02;;;;;;;39.00;21.52;;;;;;;8.59;78.77;103276.97;5032479;28;20489;-67
2022/01/28 09:57:30;;;;;;;41.70;22.98;;;;;;;8.76;78.21;103272.41;5032618;28;20045;-67
2022/01/28 09:59:57;;;;;;;48.10;23.67;;;;;;;8.84;78.34;103265.69;5030904;28;20056;-66
2022/01/28 10:02:46;;;;;;;39.85;22.13;;;;;;;9.05;77.43;103271.44;5033226;28;20057;-66
2022/01/28 10:05:25;;;;;;;51.67;26.55;;;;;;;8.99;77.36;103271.56;5032937;28;20050;-67
2022/01/28 10:08:12;;;;;;;39.28;21.45;;;;;;;8.75;77.48;103276.22;5033192;28;20643;-65
2022/01/28 10:10:55;;;;;;;37.30;19.52;;;;;;;8.32;79.22;103275.72;5031043;28;20060;-68
2022/01/28 10:16:06;;;;;;;40.88;19.38;;;;;;;8.37;78.72;103280.53;5032616;28;20057;-67
2022/01/28 10:18:49;;;;;;;37.28;19.33;;;;;;;8.75;78.37;103283.66;5024242;28;20447;-67
2022/01/28 10:21:19;;;;;;;39.20;19.27;;;;;;;8.72;77.88;103281.38;5034018;28;20496;-65
2022/01/28 10:24:15;;;;;;;32.47;17.20;;;;;;;8.99;77.10;103286.16;5034037;28;20064;-66
2022/01/28 10:27:05;;;;;;;31.80;18.35;;;;;;;8.84;76.90;103280.28;5032696;28;20045;-67
2022/01/28 10:29:36;;;;;;;;;;;;;;;8.82;76.93;103284.38;5033696;28;20464;-66
2022/01/28 10:32:12;;;;;;;33.17;17.70;;;;;;;8.91;76.65;103286.50;5015994;28;19928;-66
2022/01/28 10:34:43;;;;;;;35.17;19.05;;;;;;;9.04;76.06;103289.03;5031869;28;20037;-67
2022/01/28 10:37:10;;;;;;;33.13;18.27;;;;;;;9.05;76.00;103298.94;5032375;28;20050;-67
2022/01/28 10:40:05;;;;;;;33.30;18.40;;;;;;;9.08;76.46;103292.94;5030574;28;20053;-66
2022/01/28 10:42:51;;;;;;;34.28;17.98;;;;;;;9.74;75.84;103295.19;5036159;28;20064;-65
2022/01/28 10:45:24;;;;;;;36.53;18.67;;;;;;;9.59;74.48;103294.84;5021874;28;20053;-67
2022/01/28 10:47:53;;;;;;;42.63;18.38;;;;;;;9.26;74.42;103296.63;5036301;28;20049;-66
2022/01/28 10:50:34;;;;;;;33.53;18.23;;;;;;;9.24;75.31;103307.84;5037082;28;20054;-66
2022/01/28 10:53:04;;;;;;;37.40;18.63;;;;;;;9.58;74.69;103304.22;5035710;28;20054;-67
2022/01/28 10:55:35;;;;;;;;;;;;;;;9.62;74.31;103308.16;5037624;28;20041;-66
2022/01/28 10:58:11;;;;;;;36.53;17.83;;;;;;;9.64;73.77;103310.66;5019455;28;19921;-66
2022/01/28 11:01:01;;;;;;;31.30;17.90;;;;;;;9.60;73.71;103309.47;5037375;28;20060;-67
2022/01/28 11:03:29;;;;;;;38.00;18.50;;;;;;;9.54;73.63;103307.66;5036253;28;20196;-66
2022/01/28 11:05:59;;;;;;;32.00;18.00;;;;;;;9.72;73.22;103310.25;5035081;28;20053;-66
2022/01/28 11:08:29;;;;;;;36.50;18.20;;;;;;;9.71;73.26;103309.41;5019758;28;20045;-67
2022/01/28 11:10:57;;;;;;;32.50;18.02;;;;;;;9.70;73.82;103307.75;5036238;28;20045;-67
2022/01/28 11:13:25;;;;;;;32.10;17.80;;;;;;;9.74;74.24;103310.84;5050210;28;20048;-68
2022/01/28 11:15:53;;;;;;;32.33;17.27;;;;;;;9.86;73.92;103306.13;5036212;28;20539;-68
2022/01/28 11:18:21;;;;;;;31.27;17.77;;;;;;;10.01;73.23;103300.91;5017024;28;20054;-67
2022/01/28 11:20:51;;;;;;;31.83;18.15;;;;;;;9.93;73.16;103295.81;4995842;28;20049;-67
2022/01/28 11:23:33;;;;;;;35.53;17.98;;;;;;;9.97;73.05;103294.25;4996885;28;20206;-67
2022/01/28 11:26:31;;;;;;;37.35;19.50;;;;;;;10.01;72.44;103284.38;4999867;28;20053;-68
2022/01/28 11:29:02;;;;;;;40.83;23.33;;;;;;;10.03;72.30;103284.97;5016815;28;20222;-67
2022/01/28 11:31:49;;;;;;;34.47;19.38;;;;;;;9.89;72.56;103283.63;5027571;28;20080;-67
2022/01/28 11:34:22;;;;;;;29.00;17.55;;;;;;;9.96;72.73;103282.38;5035129;28;20050;-67
2022/01/28 11:36:55;;;;;;;29.15;17.58;;;;;;;10.06;71.98;103287.22;5028184;28;20061;-68
2022/01/28 11:39:34;;;;;;;33.00;18.98;;;;;;;10.29;71.22;103280.81;5016348;28;20049;-67
2022/01/28 11:42:07;;;;;;;32.45;18.17;;;;;;;9.70;72.00;103273.88;5036647;28;20054;-66
2022/01/28 11:44:50;;;;;;;37.90;21.95;;;;;;;9.73;71.83;103274.22;5035230;28;20060;-67
2022/01/28 11:47:31;;;;;;;59.85;33.95;;;;;;;9.92;71.97;103266.63;5035610;28;20049;-67
2022/01/28 11:50:05;;;;;;;46.45;26.15;;;;;;;10.31;72.76;103262.94;5017276;28;20057;-67
2022/01/28 11:52:45;;;;;;;33.70;19.02;;;;;;;10.06;71.26;103268.81;5036052;28;20049;-67
2022/01/28 11:55:15;;;;;;;33.30;19.75;;;;;;;10.15;71.58;103252.72;5036140;28;20045;-67
2022/01/28 11:58:05;;;;;;;30.42;19.55;;;;;;;10.23;70.30;103242.13;5006035;28;20054;-67
2022/01/28 12:00:44;;;;;;;32.17;18.92;;;;;;;9.96;71.82;103248.50;5014067;28;20057;-72
2022/01/28 12:03:26;;;;;;;35.70;21.52;;;;;;;9.92;71.23;103252.84;4990903;28;20050;-67
2022/01/28 12:05:58;;;;;;;37.30;21.52;;;;;;;9.88;71.09;103244.25;5028722;28;20049;-66
2022/01/28 12:08:30;;;;;;;37.25;20.20;;;;;;;9.88;71.49;103229.66;5015475;28;20527;-67
2022/01/28 12:11:00;;;;;;;32.97;17.98;;;;;;;10.02;70.50;103222.75;5016470;28;20408;-66
2022/01/28 12:13:33;;;;;;;30.58;17.80;;;;;;;10.12;70.78;103228.47;5020487;28;20062;-67
2022/01/28 12:16:13;;;;;;;36.10;20.10;;;;;;;10.02;70.92;103226.31;4989847;28;20045;-67
2022/01/28 12:18:44;;;;;;;33.13;17.88;;;;;;;10.10;71.24;103219.59;5018750;28;20500;-67
2022/01/28 12:21:12;;;;;;;28.88;17.45;;;;;;;9.87;72.23;103236.22;5035614;28;20060;-67
2022/01/28 12:23:40;;;;;;;30.75;16.35;;;;;;;9.97;71.44;103219.91;5025953;28;20053;-67
2022/01/28 12:26:07;;;;;;;30.85;16.55;;;;;;;9.90;71.72;103211.78;5036723;28;20045;-66
2022/01/28 12:28:36;;;;;;;31.98;17.80;;;;;;;9.82;72.39;103206.69;5036926;28;20045;-66
2022/01/28 12:31:16;;;;;;;34.60;16.63;;;;;;;9.79;71.91;103200.84;5002394;28;20539;-66
2022/01/28 12:33:49;;;;;;;31.92;16.77;;;;;;;9.38;72.61;103198.44;4997738;28;20057;-68
2022/01/28 12:36:22;;;;;;;29.35;16.60;;;;;;;9.19;73.08;103188.69;5016249;28;20050;-66
2022/01/28 12:39:14;;;;;;;30.35;15.98;;;;;;;9.25;73.55;103177.53;5034887;28;20053;-65
2022/01/28 12:41:53;;;;;;;26.38;15.88;;;;;;;9.53;72.32;103182.22;5036082;28;20073;-66
2022/01/28 12:44:21;;;;;;;32.97;16.85;;;;;;;9.68;72.71;103186.06;5035813;28;20065;-65
2022/01/28 12:46:55;;;;;;;28.60;15.88;;;;;;;8.93;74.74;103199.16;5016088;28;20603;-69
2022/01/28 12:49:26;;;;;;;30.00;17.23;;;;;;;8.93;75.16;103196.41;5031300;28;20045;-67
2022/01/28 12:52:01;;;;;;;29.80;16.83;;;;;;;9.08;74.38;103207.72;5035672;28;20064;-66
2022/01/28 12:54:49;;;;;;;29.88;16.30;;;;;;;9.05;74.38;103201.84;5033390;28;20045;-69
2022/01/28 12:57:19;;;;;;;33.45;16.67;;;;;;;9.02;74.91;103211.44;5028868;28;20400;-67
2022/01/28 12:59:48;;;;;;;25.63;15.48;;;;;;;8.90;75.43;103204.28;5035093;28;20057;-67
2022/01/28 13:02:17;;;;;;;30.58;16.20;;;;;;;8.99;75.00;103203.69;5033053;28;20413;-67
2022/01/28 13:10:31;;;;;;;34.30;18.73;;;;;;;8.99;75.03;103200.94;5040144;28;20069;-67
2022/01/28 13:13:04;;;;;;;;;;;;;;;9.19;74.34;103191.44;5035614;28;20125;-66
2022/01/28 13:15:32;;;;;;;28.63;17.13;;;;;;;9.46;73.29;103193.38;5026974;28;19929;-68